KPAOKNUQ

Guest
Details From KPAO - Palo Alto
To KNUQ - Moffett Federal AFLD
Flight Number -
Tags generated
Created
Modified
Stats Distance 4 nm / 8 km
Max Altitude 0 ft / 0 m
Waypoints 2
Social Downloads 1
Likes 0
Share VATSIM

Download

Looking for another format? Having issues loading an existing format? Contact us
Advertisement - Login to hide

Notes

Basic altitude profile: - Ascent Rate: 1000ft/min - Ascent Speed: 120kts - Cruise Altitude: 3000ft - Cruise Speed: 120kts - Descent Rate: 1500ft/min - Descent Speed: 120kts Options: - Use NATs: yes - Use PACOTS: yes - Use low airways: yes - Use high airways: yes

Route

KPAO KNUQ

ID Type Via Altitude Latitude Longitude Leg Dist Tot Dist Heading (true) Name
O KPAO APT - 0 ft / 0 m 37.46089˚ -122.11482˚ - 0 nm - Palo Alto
O KNUQ APT - 0 ft / 0 m 37.41607˚ -122.04917˚ 4 nm 4 nm 131° / 131° Moffett Federal AFLD

Altitude Profile

Advertisement - Login to hide

KPAO

Details ICAO KPAO (PAO)
Name Palo Alto
Region United States
Timezone America/Los_Angeles (UTC-8.0)
Stats Elevation 4 ft / 1 m (AMSL)
Location 37.460889° -122.114823°
Runways 1
Magnetic Variation 13.389° E

METAR

KPAO 160247Z 00000KT 10SM HZ BKN180 11/09 A3005

Decode

TAF

Not found

Departure Runways

ID Width Length Bearing (true) Bearing (mag) Surface Threshold Offset Overrun Length
31 75 ft / 23 m 2,659 ft / 810 m 321.81° 308.42° Asphalt 213 ft / 65 m 0 ft / 0 m
XXX 75 ft / 23 m 2,659 ft / 810 m 141.80° 128.41° Asphalt 0 ft / 0 m 197 ft / 60 m

KNUQ

Details ICAO KNUQ (NUQ)
Name Moffett Federal AFLD
Region United States
Timezone America/Los_Angeles (UTC-8.0)
Stats Elevation 33 ft / 10 m (AMSL)
Location 37.416069° -122.049174°
Runways 2
Magnetic Variation 13.369° E

METAR

KNUQ 160256Z 00000KT 6SM HZ CLR 12/07 A3005 RMK AO2 SLP179 T01220072 58004

Decode

TAF

Not found

Destination Runways

ID Width Length Bearing (true) Bearing (mag) Surface Threshold Offset Overrun Length
14L 200 ft / 61 m 9,216 ft / 2,809 m 157.80° 144.43° Concrete 350 ft / 107 m 0 ft / 0 m
14R 200 ft / 61 m 8,140 ft / 2,481 m 157.80° 144.43° Asphalt 250 ft / 76 m 0 ft / 0 m
32L 200 ft / 61 m 8,140 ft / 2,481 m 337.80° 324.43° Asphalt 250 ft / 76 m 0 ft / 0 m
32R 200 ft / 61 m 9,216 ft / 2,809 m 337.80° 324.43° Concrete 350 ft / 107 m 0 ft / 0 m

Approach Navaids

Runway Type Ident Frequency Range Bearing (true) Bearing (mag) Slope Elevation
14L Localiser IMNQ 110.35 MHz 18 nm / 33 km 157.80° 144.43° - 30 ft / 9 m (AMSL)
32R Localiser INUQ 110.35 MHz 18 nm / 33 km 337.80° 324.43° - 7 ft / 2 m (AMSL)
32R Glidescope INUQ 110.35 MHz 10 nm / 19 km 337.80° 324.43° 3.00° 19 ft / 6 m (AMSL)